Time;durP1;ratioP1;P1;durP2;ratioP2;P2;SDS_P1;SDS_P2;PMS_P1;PMS_P2;Temp;Humidity;BMP_temperature;BMP_pressure;BME280_temperature;BME280_humidity;BME280_pressure;Samples;Min_cycle;Max_cycle;Signal;HPM_P1;HPM_P2
2022/12/14 00:02:23;;;;;;;16.30;9.05;;;;;;;-3.07;100.00;100426.78;5260369;28;20108;-84
2022/12/14 00:04:54;;;;;;;16.50;8.85;;;;;;;-3.06;100.00;100412.84;5260837;28;20989;-84
2022/12/14 00:07:28;;;;;;;18.63;8.90;;;;;;;-3.08;100.00;100412.06;5261468;28;20025;-84
2022/12/14 00:09:59;;;;;;;14.80;9.05;;;;;;;-3.11;100.00;100404.38;5260964;28;20037;-84
2022/12/14 00:12:31;;;;;;;17.15;9.70;;;;;;;-3.14;100.00;100407.94;5261852;28;20187;-84
2022/12/14 00:15:03;;;;;;;14.88;8.88;;;;;;;-3.16;100.00;100395.88;5260209;28;20030;-84
2022/12/14 00:17:34;;;;;;;19.35;10.18;;;;;;;-3.17;100.00;100394.19;5256498;28;20037;-85
2022/12/14 00:20:07;;;;;;;15.07;8.10;;;;;;;-3.17;100.00;100396.78;5260903;28;20087;-84
2022/12/14 00:22:38;;;;;;;15.73;9.05;;;;;;;-3.26;100.00;100391.06;5259365;28;20502;-85
2022/12/14 00:25:09;;;;;;;14.35;8.32;;;;;;;-3.27;100.00;100394.56;5257652;28;20120;-84
2022/12/14 00:27:45;;;;;;;14.18;8.85;;;;;;;-3.26;100.00;100398.91;5258451;28;20041;-84
2022/12/14 00:30:18;;;;;;;12.75;7.97;;;;;;;-3.28;100.00;100402.47;5260596;28;20030;-84
2022/12/14 00:32:50;;;;;;;14.57;8.50;;;;;;;-3.28;100.00;100398.13;5260283;28;20495;-84
2022/12/14 00:35:24;;;;;;;15.60;9.15;;;;;;;-3.35;100.00;100390.59;5260047;28;20026;-84
2022/12/14 00:37:55;;;;;;;14.63;8.35;;;;;;;-3.34;100.00;100381.88;5258978;28;20041;-85
2022/12/14 00:40:27;;;;;;;12.65;8.07;;;;;;;-3.35;100.00;100385.38;5261079;28;36546;-84
2022/12/14 00:42:58;;;;;;;15.82;8.25;;;;;;;-3.37;100.00;100379.38;5260250;28;20093;-85
2022/12/14 00:45:29;;;;;;;15.02;8.52;;;;;;;-3.40;100.00;100374.28;5260234;28;20026;-85
2022/12/14 00:48:01;;;;;;;14.45;7.90;;;;;;;-3.47;100.00;100374.56;5242435;28;20037;-85
2022/12/14 00:50:32;;;;;;;15.60;8.20;;;;;;;-3.52;100.00;100360.03;5262181;28;20045;-85
2022/12/14 00:53:03;;;;;;;15.60;8.77;;;;;;;-3.56;100.00;100361.06;5260942;28;20044;-85
2022/12/14 00:55:39;;;;;;;15.05;8.15;;;;;;;-3.62;100.00;100360.41;5259264;28;20033;-85
2022/12/14 00:58:12;;;;;;;12.98;8.52;;;;;;;-3.66;100.00;100353.63;5261168;28;20013;-85
2022/12/14 01:00:45;;;;;;;14.57;8.20;;;;;;;-3.73;100.00;100354.81;5259478;28;20026;-84
2022/12/14 01:03:16;;;;;;;14.00;8.25;;;;;;;-3.80;100.00;100356.81;5261235;28;20496;-85
2022/12/14 01:05:47;;;;;;;14.05;8.63;;;;;;;-3.92;100.00;100354.69;5243244;28;20021;-84
2022/12/14 01:08:19;;;;;;;14.40;8.80;;;;;;;-3.94;100.00;100353.06;5260571;28;20100;-84
2022/12/14 01:10:51;;;;;;;16.02;8.93;;;;;;;-3.99;100.00;100348.88;5260687;28;20091;-84
2022/12/14 01:13:22;;;;;;;14.15;8.20;;;;;;;-3.99;100.00;100340.22;5242696;28;20029;-84
2022/12/14 01:15:53;;;;;;;15.15;8.30;;;;;;;-4.04;100.00;100336.97;5259279;28;20029;-84
2022/12/14 01:18:24;;;;;;;15.98;8.52;;;;;;;-4.00;100.00;100341.13;5261255;28;20030;-85
2022/12/14 01:21:07;;;;;;;13.15;8.38;;;;;;;-3.95;100.00;100343.56;5260238;28;20040;-85
2022/12/14 01:23:38;;;;;;;15.73;8.73;;;;;;;-3.97;100.00;100334.97;5259652;28;20041;-85
2022/12/14 01:26:11;;;;;;;14.20;8.20;;;;;;;-3.99;100.00;100335.00;5259517;28;20088;-84
2022/12/14 01:28:44;;;;;;;17.40;8.57;;;;;;;-4.02;100.00;100329.91;5259025;28;20116;-84
2022/12/14 01:31:17;;;;;;;14.07;7.80;;;;;;;-4.02;100.00;100329.91;5257326;28;20033;-84
2022/12/14 01:33:49;;;;;;;15.70;8.63;;;;;;;-4.03;100.00;100326.47;5258996;28;20351;-84
2022/12/14 01:36:29;;;;;;;17.33;8.73;;;;;;;-4.02;100.00;100333.38;5243245;28;20068;-84
2022/12/14 01:39:12;;;;;;;17.05;8.27;;;;;;;-4.03;100.00;100330.84;5259053;28;20025;-84
2022/12/14 01:41:52;;;;;;;16.83;8.20;;;;;;;-4.06;100.00;100330.97;5258341;28;20474;-84
2022/12/14 01:44:24;;;;;;;16.33;9.40;;;;;;;-4.11;100.00;100327.69;5258698;28;20030;-84
2022/12/14 01:47:01;;;;;;;13.38;8.00;;;;;;;-4.11;100.00;100336.34;5241035;28;20029;-84
2022/12/14 01:49:42;;;;;;;14.88;7.60;;;;;;;-4.12;100.00;100336.41;5260876;28;20091;-84
2022/12/14 01:52:35;;;;;;;14.45;8.40;;;;;;;-4.16;100.00;100334.84;5257052;28;20112;-85
2022/12/14 01:55:15;;;;;;;15.38;8.40;;;;;;;-4.22;100.00;100334.19;5240403;28;20052;-84
2022/12/14 01:58:01;;;;;;;14.15;8.10;;;;;;;-4.20;100.00;100326.31;5264518;28;20033;-83
2022/12/14 02:00:33;;;;;;;15.23;7.78;;;;;;;-4.21;100.00;100333.28;5266807;28;20092;-83
2022/12/14 02:03:25;;;;;;;14.88;7.63;;;;;;;-4.20;100.00;100321.09;5251537;28;20041;-83
2022/12/14 02:06:01;;;;;;;14.70;7.70;;;;;;;-4.19;100.00;100313.22;5266218;28;20044;-83
2022/12/14 02:08:33;;;;;;;16.73;8.80;;;;;;;-4.20;100.00;100311.50;5261080;28;20026;-84
2022/12/14 02:11:04;;;;;;;12.43;7.43;;;;;;;-4.16;100.00;100314.00;5259009;28;20029;-83
2022/12/14 02:13:41;;;;;;;12.82;7.93;;;;;;;-4.21;100.00;100308.97;5260466;28;20112;-84
2022/12/14 02:16:12;;;;;;;15.40;8.35;;;;;;;-4.24;100.00;100302.13;5258460;28;20097;-85
2022/12/14 02:18:43;;;;;;;16.30;8.60;;;;;;;-4.27;100.00;100304.03;5260877;28;20152;-86
2022/12/14 02:21:29;;;;;;;14.57;7.55;;;;;;;-4.25;100.00;100302.19;5241321;28;20037;-84
2022/12/14 02:24:13;;;;;;;14.48;8.30;;;;;;;-4.22;100.00;100300.31;5259712;28;20029;-84
2022/12/14 02:26:51;;;;;;;11.90;7.53;;;;;;;-4.23;100.00;100305.59;5245517;28;20053;-85
2022/12/14 02:29:43;;;;;;;12.55;7.82;;;;;;;-4.29;100.00;100298.88;5261737;28;20037;-85
2022/12/14 02:32:39;;;;;;;15.93;7.43;;;;;;;-4.27;100.00;100299.66;5259753;28;20034;-83
2022/12/14 02:35:30;;;;;;;14.38;8.75;;;;;;;-4.31;100.00;100292.00;5261101;28;20026;-84
2022/12/14 02:38:30;;;;;;;15.95;7.97;;;;;;;-4.33;100.00;100289.50;5275802;28;20033;-84
2022/12/14 02:41:09;;;;;;;16.17;8.20;;;;;;;-4.39;100.00;100287.97;5257707;28;20434;-84
2022/12/14 02:43:56;;;;;;;14.18;8.00;;;;;;;-4.43;100.00;100296.81;5259715;28;20029;-84
2022/12/14 02:46:38;;;;;;;14.38;7.97;;;;;;;-4.46;100.00;100293.47;5258001;28;20052;-84
2022/12/14 02:49:11;;;;;;;14.98;8.50;;;;;;;-4.49;100.00;100278.81;5259612;28;20083;-84
2022/12/14 02:52:12;;;;;;;14.40;8.20;;;;;;;-4.50;100.00;100284.09;5260764;28;20021;-85
2022/12/14 02:54:53;;;;;;;13.80;7.28;;;;;;;-4.52;100.00;100281.56;5258100;28;20037;-85
2022/12/14 02:58:00;;;;;;;15.57;8.52;;;;;;;-4.44;100.00;100281.25;5261588;28;20335;-84
2022/12/14 03:00:35;;;;;;;13.55;7.90;;;;;;;-4.45;100.00;100279.53;5247986;28;20121;-84
2022/12/14 03:03:07;;;;;;;15.55;8.00;;;;;;;-4.40;100.00;100290.63;5264773;28;20037;-84
2022/12/14 03:05:38;;;;;;;15.80;8.38;;;;;;;-4.37;100.00;100291.34;5264509;28;20378;-84
2022/12/14 03:08:12;;;;;;;14.82;8.18;;;;;;;-4.31;100.00;100290.28;5264414;28;20021;-85
2022/12/14 03:10:56;;;;;;;14.52;8.00;;;;;;;-4.30;100.00;100294.56;5248122;28;20031;-83
2022/12/14 03:13:45;;;;;;;13.02;8.75;;;;;;;-4.29;100.00;100292.81;5274463;28;20084;-83
2022/12/14 03:16:41;;;;;;;14.68;7.50;;;;;;;-4.24;100.00;100288.28;5269507;28;20072;-84
2022/12/14 03:19:12;;;;;;;12.90;8.05;;;;;;;-4.21;100.00;100288.13;5256380;28;20116;-83
2022/12/14 03:21:50;;;;;;;15.85;8.23;;;;;;;-4.18;100.00;100273.22;5265061;28;20534;-84
2022/12/14 03:24:30;;;;;;;12.93;7.45;;;;;;;-4.16;100.00;100269.72;5264297;28;20080;-84
2022/12/14 03:27:10;;;;;;;11.25;7.43;;;;;;;-4.16;100.00;100272.34;5264874;28;20363;-83
2022/12/14 03:29:49;;;;;;;15.60;7.95;;;;;;;-4.15;100.00;100268.78;5263925;28;20018;-84
2022/12/14 03:32:25;;;;;;;14.70;8.45;;;;;;;-4.14;100.00;100255.72;5263948;28;20033;-84
2022/12/14 03:35:02;;;;;;;17.85;8.20;;;;;;;-4.13;100.00;100244.41;5249354;28;20026;-84
2022/12/14 03:37:50;;;;;;;13.50;8.38;;;;;;;-4.12;100.00;100238.28;5250920;28;20466;-84
2022/12/14 03:40:27;;;;;;;13.18;8.32;;;;;;;-4.13;100.00;100236.59;5271619;28;20034;-83
2022/12/14 03:43:15;;;;;;;17.92;8.98;;;;;;;-4.12;100.00;100230.47;5267886;28;20382;-82
2022/12/14 03:46:11;;;;;;;16.00;8.82;;;;;;;-4.09;100.00;100229.47;5267591;28;20092;-84
2022/12/14 03:48:47;;;;;;;15.50;8.55;;;;;;;-4.11;100.00;100241.72;5257590;28;20450;-84
2022/12/14 03:51:29;;;;;;;12.80;7.93;;;;;;;-4.09;100.00;100253.78;5259081;28;20021;-83
2022/12/14 03:54:10;;;;;;;15.02;7.93;;;;;;;-4.11;100.00;100244.34;5260723;28;20052;-85
2022/12/14 03:57:07;;;;;;;14.00;8.32;;;;;;;-4.08;100.00;100245.06;5261197;28;20022;-84
2022/12/14 03:59:49;;;;;;;14.73;8.85;;;;;;;-4.08;100.00;100237.25;5262908;28;20099;-83
2022/12/14 04:02:28;;;;;;;17.40;8.25;;;;;;;-4.09;100.00;100229.47;5270754;28;20366;-84
2022/12/14 04:05:07;;;;;;;15.35;8.13;;;;;;;-4.07;100.00;100223.28;5261089;28;20033;-83
2022/12/14 04:07:51;;;;;;;13.50;7.82;;;;;;;-4.06;100.00;100227.59;5258462;28;20056;-85
2022/12/14 04:19:18;;;;;;;17.30;9.02;;;;;;;-4.01;100.00;100207.41;5260653;28;20029;-83
2022/12/14 04:21:58;;;;;;;15.35;8.82;;;;;;;-4.01;100.00;100203.97;5264166;28;20463;-83
2022/12/14 04:27:36;;;;;;;14.70;8.45;;;;;;;-3.97;100.00;100200.31;5261538;28;20061;-84
2022/12/14 04:30:10;;;;;;;16.42;8.00;;;;;;;-3.98;100.00;100201.22;5260383;28;20079;-84
2022/12/14 04:32:50;;;;;;;15.10;8.32;;;;;;;-4.01;100.00;100203.97;5259628;28;20581;-84
2022/12/14 04:35:35;;;;;;;17.77;8.70;;;;;;;-4.03;100.00;100204.03;5257179;28;20144;-84
2022/12/14 04:38:11;;;;;;;16.92;10.02;;;;;;;-4.05;100.00;100194.56;5258927;28;20033;-84
2022/12/14 04:40:56;;;;;;;13.30;8.88;;;;;;;-4.07;100.00;100189.41;5256403;28;20037;-84
2022/12/14 04:43:31;;;;;;;15.32;10.13;;;;;;;-4.12;100.00;100187.94;5260272;28;20101;-84
2022/12/14 04:46:25;;;;;;;15.98;8.45;;;;;;;-4.09;100.00;100186.03;5259051;28;20393;-84
2022/12/14 04:49:15;;;;;;;17.27;9.13;;;;;;;-4.09;100.00;100180.81;5261552;28;20417;-84
2022/12/14 04:52:11;;;;;;;14.48;9.07;;;;;;;-4.11;100.00;100177.44;5261228;28;20033;-84
2022/12/14 04:54:53;;;;;;;15.85;9.40;;;;;;;-4.14;100.00;100181.94;5260119;28;20106;-85
2022/12/14 04:57:37;;;;;;;17.70;9.50;;;;;;;-4.14;100.00;100181.94;5259951;28;20105;-84
2022/12/14 05:00:09;;;;;;;17.05;8.98;;;;;;;-4.20;100.00;100168.25;5260381;28;20112;-85
2022/12/14 05:03:31;;;;;;;16.08;9.32;;;;;;;-4.14;100.00;100176.72;5260385;28;20101;-85
2022/12/14 05:06:11;;;;;;;18.38;9.23;;;;;;;-4.16;100.00;100178.56;5227583;28;20502;-84
2022/12/14 05:08:53;;;;;;;14.38;8.52;;;;;;;-4.14;100.00;100179.34;5262139;28;20379;-85
2022/12/14 05:11:29;;;;;;;17.83;9.60;;;;;;;-4.15;100.00;100180.22;5261231;28;20178;-84
2022/12/14 05:14:05;;;;;;;;;;;;;;;-4.12;100.00;100175.78;5261376;28;20117;-85
2022/12/14 05:16:37;;;;;;;17.60;10.52;;;;;;;-4.17;100.00;100169.91;5257401;28;19917;-84
2022/12/14 05:19:09;;;;;;;19.63;11.38;;;;;;;-4.19;100.00;100167.38;5260431;28;20083;-85
2022/12/14 05:21:46;;;;;;;22.48;10.93;;;;;;;-4.22;100.00;100164.88;5261212;28;20603;-84
2022/12/14 05:24:17;;;;;;;19.52;10.60;;;;;;;-4.23;100.00;100159.75;5256455;28;20040;-84
2022/12/14 05:26:48;;;;;;;22.50;12.55;;;;;;;-4.24;100.00;100161.50;5240447;28;20038;-84
2022/12/14 05:29:20;;;;;;;19.33;10.75;;;;;;;-4.27;100.00;100163.41;5257726;28;20040;-84
2022/12/14 05:31:51;;;;;;;19.67;10.13;;;;;;;-4.28;100.00;100156.47;5258412;28;20080;-85
2022/12/14 05:34:23;;;;;;;19.08;9.68;;;;;;;-4.29;100.00;100145.22;5256468;28;20053;-84
2022/12/14 05:36:54;;;;;;;17.55;9.98;;;;;;;-4.30;100.00;100151.34;5258491;28;20022;-84
2022/12/14 05:39:25;;;;;;;15.45;8.85;;;;;;;-4.29;100.00;100154.81;5257692;28;20082;-85
2022/12/14 05:41:56;;;;;;;15.57;8.93;;;;;;;-4.29;100.00;100152.19;5258473;28;20500;-84
2022/12/14 05:44:28;;;;;;;16.05;10.07;;;;;;;-4.32;100.00;100147.94;5262526;28;20037;-84
2022/12/14 05:46:59;;;;;;;16.20;8.23;;;;;;;-4.12;100.00;100161.88;5266815;28;20071;-84
2022/12/14 05:49:30;;;;;;;16.25;8.70;;;;;;;-4.15;100.00;100164.59;5270412;28;20093;-83
2022/12/14 05:52:02;;;;;;;17.63;9.85;;;;;;;-4.02;100.00;100156.19;5272813;28;20488;-83
2022/12/14 05:54:33;;;;;;;17.58;9.77;;;;;;;-4.14;100.00;100169.75;5259394;28;20148;-83
2022/12/14 05:57:05;;;;;;;15.75;7.82;;;;;;;-3.97;100.00;100163.00;5257432;28;20029;-84
2022/12/14 05:59:37;;;;;;;14.25;8.10;;;;;;;-3.92;100.00;100161.88;5255929;28;20049;-83
2022/12/14 06:02:08;;;;;;;14.65;8.65;;;;;;;-3.95;100.00;100162.00;5253581;28;21071;-84
2022/12/14 06:04:40;;;;;;;15.57;9.35;;;;;;;-4.00;100.00;100158.75;5255577;28;20025;-84
2022/12/14 06:07:11;;;;;;;17.38;9.30;;;;;;;-4.06;100.00;100152.03;5253829;28;20036;-84
2022/12/14 06:09:43;;;;;;;16.10;9.73;;;;;;;-4.08;100.00;100153.88;5256734;28;20049;-84
2022/12/14 06:12:14;;;;;;;16.02;9.30;;;;;;;-4.10;100.00;100152.22;5256187;28;20493;-84
2022/12/14 06:14:45;;;;;;;15.88;9.43;;;;;;;-4.08;100.00;100153.03;5259719;28;20071;-83
2022/12/14 06:17:16;;;;;;;14.82;9.70;;;;;;;-4.14;100.00;100140.25;5258269;28;20038;-84
2022/12/14 06:19:48;;;;;;;15.77;8.98;;;;;;;-4.17;100.00;100128.22;5256529;28;20030;-84
2022/12/14 06:22:19;;;;;;;15.18;8.55;;;;;;;-4.16;100.00;100139.50;5258350;28;20040;-83
2022/12/14 06:24:50;;;;;;;15.27;9.77;;;;;;;-4.21;100.00;100142.28;5256782;28;20627;-85
2022/12/14 06:27:22;;;;;;;16.23;9.30;;;;;;;-4.24;100.00;100140.66;5261688;28;20042;-84
2022/12/14 06:29:53;;;;;;;15.15;9.27;;;;;;;-4.24;100.00;100145.03;5261567;28;20061;-84
2022/12/14 06:32:25;;;;;;;13.07;6.95;;;;;;;-4.01;100.00;100144.03;5263984;28;20025;-84
2022/12/14 06:34:56;;;;;;;14.27;9.10;;;;;;;-3.54;100.00;100132.38;5261395;28;20026;-85
2022/12/14 06:37:30;;;;;;;15.75;9.90;;;;;;;-3.63;100.00;100144.94;5267306;28;20025;-84
2022/12/14 06:40:01;;;;;;;16.17;9.85;;;;;;;-3.52;100.00;100136.63;5257091;28;20025;-84
2022/12/14 06:42:32;;;;;;;15.48;8.30;;;;;;;-3.21;100.00;100139.56;5258577;28;20025;-85
2022/12/14 06:45:04;;;;;;;15.35;9.07;;;;;;;-3.15;100.00;100153.19;5258652;28;20038;-84
2022/12/14 06:47:35;;;;;;;16.80;10.02;;;;;;;-2.95;100.00;100152.22;5253774;28;20032;-83
2022/12/14 06:50:07;;;;;;;18.20;10.73;;;;;;;-2.75;100.00;100153.91;5256576;28;20462;-83
2022/12/14 06:52:38;;;;;;;20.35;11.85;;;;;;;-3.26;100.00;100158.91;5259054;28;20030;-84
2022/12/14 06:55:10;;;;;;;18.50;10.93;;;;;;;-3.39;100.00;100155.16;5258118;28;20026;-83
2022/12/14 06:57:41;;;;;;;19.15;11.02;;;;;;;-3.49;100.00;100154.75;5258431;28;20112;-84
2022/12/14 07:00:13;;;;;;;16.50;9.93;;;;;;;-3.70;100.00;100155.69;5258632;28;20087;-83
2022/12/14 07:02:45;;;;;;;17.13;9.77;;;;;;;-3.81;100.00;100151.81;5256814;28;20038;-84
2022/12/14 07:05:16;;;;;;;17.45;10.23;;;;;;;-3.93;100.00;100154.97;5258996;28;20026;-83
2022/12/14 07:07:47;;;;;;;17.95;10.25;;;;;;;-3.90;100.00;100160.03;5255605;28;20474;-84
2022/12/14 07:10:19;;;;;;;17.35;10.55;;;;;;;-4.18;100.00;100155.19;5254702;28;20028;-83
2022/12/14 07:12:50;;;;;;;23.02;10.50;;;;;;;-4.11;100.00;100160.97;5257734;28;20136;-83
2022/12/14 07:15:21;;;;;;;18.75;10.50;;;;;;;-4.15;100.00;100160.25;5255829;28;20029;-83
2022/12/14 07:17:53;;;;;;;16.42;9.80;;;;;;;-4.21;100.00;100156.16;5255779;28;20049;-83
2022/12/14 07:20:24;;;;;;;23.10;10.68;;;;;;;-4.24;100.00;100156.28;5258041;28;20040;-83
2022/12/14 07:22:55;;;;;;;17.50;10.48;;;;;;;-4.34;100.00;100165.41;5263657;28;20021;-81
2022/12/14 07:25:27;;;;;;;18.45;10.00;;;;;;;-4.34;100.00;100159.34;5245957;28;20370;-83
2022/12/14 07:27:58;;;;;;;17.80;10.68;;;;;;;-4.42;100.00;100157.91;5257972;28;20041;-82
2022/12/14 07:30:29;;;;;;;18.70;10.13;;;;;;;-4.40;100.00;100158.69;5258920;28;20037;-83
2022/12/14 07:33:00;;;;;;;18.38;9.55;;;;;;;-4.41;100.00;100163.97;5260004;28;20025;-83
2022/12/14 07:35:32;;;;;;;20.65;9.32;;;;;;;-4.37;100.00;100166.34;5259644;28;20101;-83
2022/12/14 07:38:03;;;;;;;16.77;9.18;;;;;;;-4.44;100.00;100166.69;5260066;28;20033;-82
2022/12/14 07:40:34;;;;;;;20.02;10.52;;;;;;;-4.53;100.00;100169.69;5264003;28;20073;-82
2022/12/14 07:43:06;;;;;;;18.60;11.00;;;;;;;-4.68;100.00;100169.41;5264449;28;20026;-83
2022/12/14 07:45:37;;;;;;;20.50;10.10;;;;;;;-4.67;100.00;100160.66;5257490;28;20776;-82
2022/12/14 07:48:09;;;;;;;20.58;11.02;;;;;;;-4.69;100.00;100169.47;5269069;28;20033;-82
2022/12/14 07:50:40;;;;;;;16.38;10.43;;;;;;;-4.77;100.00;100165.41;5269748;28;20028;-82
2022/12/14 07:53:11;;;;;;;19.30;10.80;;;;;;;-4.77;100.00;100172.34;5264318;28;20061;-81
2022/12/14 07:55:43;;;;;;;19.33;10.13;;;;;;;-4.85;100.00;100166.63;5267059;28;20101;-83
2022/12/14 07:58:14;;;;;;;21.17;11.63;;;;;;;-4.90;100.00;100163.38;5242765;28;20386;-82
2022/12/14 08:00:47;;;;;;;21.42;10.70;;;;;;;-4.97;100.00;100170.56;5263935;28;20034;-83
2022/12/14 08:03:18;;;;;;;16.90;9.75;;;;;;;-5.03;100.00;100176.84;5256708;28;20478;-83
2022/12/14 08:05:49;;;;;;;19.38;11.52;;;;;;;-5.10;100.00;100174.53;5256665;28;20071;-82
2022/12/14 08:08:21;;;;;;;19.08;10.65;;;;;;;-5.16;100.00;100181.66;5257440;28;20033;-82
2022/12/14 08:10:52;;;;;;;17.77;10.52;;;;;;;-5.11;100.00;100175.44;5259387;28;20375;-82
2022/12/14 08:13:23;;;;;;;21.38;10.90;;;;;;;-5.19;100.00;100183.53;5239173;28;20026;-83
2022/12/14 08:15:55;;;;;;;19.25;10.15;;;;;;;-5.05;100.00;100172.59;5255911;28;20022;-82
2022/12/14 08:18:26;;;;;;;20.30;11.07;;;;;;;-5.03;100.00;100173.38;5260805;28;20460;-83
2022/12/14 08:20:59;;;;;;;18.05;11.40;;;;;;;-4.96;100.00;100183.50;5264078;28;20193;-82
2022/12/14 08:23:30;;;;;;;18.00;10.43;;;;;;;-4.86;100.00;100194.38;5268675;28;20025;-82
2022/12/14 08:26:04;;;;;;;20.05;10.90;;;;;;;-4.83;100.00;100193.44;5256010;28;20033;-83
2022/12/14 08:28:35;;;;;;;20.10;11.20;;;;;;;-4.77;100.00;100195.78;5288646;28;20046;-83
2022/12/14 08:31:10;;;;;;;19.88;11.98;;;;;;;-4.75;100.00;100193.97;5287082;28;20049;-82
2022/12/14 08:33:43;;;;;;;21.65;10.88;;;;;;;-4.76;100.00;100189.66;5284476;28;20014;-83
2022/12/14 08:36:17;;;;;;;17.88;9.80;;;;;;;-4.70;100.00;100189.41;5268832;28;20028;-82
2022/12/14 08:38:56;;;;;;;21.00;10.38;;;;;;;-4.75;100.00;100188.78;5279629;28;20358;-82
2022/12/14 08:41:28;;;;;;;18.38;10.43;;;;;;;-4.66;100.00;100195.34;5264440;28;20076;-82
2022/12/14 08:44:01;;;;;;;19.00;10.85;;;;;;;-4.75;100.00;100200.03;5264604;28;20030;-83
2022/12/14 08:46:33;;;;;;;18.60;10.38;;;;;;;-4.78;100.00;100196.69;5243124;28;20053;-82
2022/12/14 08:49:05;;;;;;;18.65;10.77;;;;;;;-4.86;100.00;100194.38;5264665;28;20025;-82
2022/12/14 08:51:37;;;;;;;18.75;9.82;;;;;;;-4.78;100.00;100196.69;5264375;28;20036;-82
2022/12/14 08:54:09;;;;;;;22.45;11.13;;;;;;;-4.84;100.00;100195.19;5245695;28;20025;-82
2022/12/14 08:56:41;;;;;;;17.88;9.98;;;;;;;-4.95;100.00;100197.34;5264073;28;20026;-82
2022/12/14 08:59:12;;;;;;;19.40;11.45;;;;;;;-4.85;100.00;100192.66;5245365;28;20040;-82
2022/12/14 09:01:43;;;;;;;16.85;10.48;;;;;;;-4.84;100.00;100195.19;5245839;28;20039;-83
2022/12/14 09:04:15;;;;;;;20.90;11.18;;;;;;;-4.87;100.00;100195.31;5263868;28;20064;-83
2022/12/14 09:06:46;;;;;;;22.65;10.48;;;;;;;-4.87;100.00;100184.91;5246106;28;20028;-82
2022/12/14 09:09:17;;;;;;;21.45;11.70;;;;;;;-4.77;100.00;100194.03;5245187;28;20037;-82
2022/12/14 09:11:49;;;;;;;21.17;11.82;;;;;;;-4.85;100.00;100190.88;5245306;28;20017;-83
2022/12/14 09:14:20;;;;;;;20.13;11.88;;;;;;;-4.69;100.00;100203.28;5263737;28;20024;-82
2022/12/14 09:16:51;;;;;;;21.17;10.82;;;;;;;-4.61;100.00;100207.28;5261195;28;20399;-82
2022/12/14 09:19:23;;;;;;;21.13;11.70;;;;;;;-4.64;100.00;100210.00;5263401;28;20052;-82
2022/12/14 09:21:54;;;;;;;20.25;10.60;;;;;;;-4.54;100.00;100212.22;5244907;28;20461;-82
2022/12/14 09:24:27;;;;;;;18.65;11.40;;;;;;;-4.51;100.00;100215.56;5263269;28;20145;-83
2022/12/14 09:26:59;;;;;;;18.67;10.15;;;;;;;-4.54;100.00;100205.28;5248263;28;20049;-82
2022/12/14 09:29:30;;;;;;;20.27;10.43;;;;;;;-4.46;100.00;100218.81;5263770;28;20419;-82
2022/12/14 09:32:02;;;;;;;19.65;11.40;;;;;;;-4.49;100.00;100211.13;5244969;28;20065;-82
2022/12/14 09:34:34;;;;;;;20.67;10.90;;;;;;;-4.49;100.00;100226.75;5263709;28;20026;-82
2022/12/14 09:37:08;;;;;;;17.23;9.98;;;;;;;-4.39;100.00;100224.63;5272638;28;20497;-82
2022/12/14 09:39:39;;;;;;;18.85;10.43;;;;;;;-4.35;100.00;100223.59;5246999;28;20045;-81
2022/12/14 09:42:37;;;;;;;17.45;9.48;;;;;;;-4.25;100.00;100219.69;5260079;28;20029;-82
2022/12/14 09:45:44;;;;;;;16.20;9.55;;;;;;;-4.20;100.00;100212.53;5244129;28;20029;-82
2022/12/14 09:48:21;;;;;;;16.65;10.00;;;;;;;-4.15;100.00;100201.06;5249409;28;20057;-82
2022/12/14 09:50:53;;;;;;;18.15;10.38;;;;;;;-4.03;100.00;100203.19;5244751;28;20029;-82
2022/12/14 09:53:24;;;;;;;19.65;10.02;;;;;;;-4.01;100.00;100207.41;5244937;28;20044;-82
2022/12/14 09:55:57;;;;;;;18.55;10.27;;;;;;;-3.92;100.00;100207.94;5263395;28;20025;-82
2022/12/14 09:58:31;;;;;;;14.85;9.00;;;;;;;-3.84;100.00;100219.72;5244678;28;20463;-82
2022/12/14 10:01:02;;;;;;;17.92;9.70;;;;;;;-3.80;100.00;100217.84;5252489;28;20025;-83
2022/12/14 10:04:15;;;;;;;17.13;9.30;;;;;;;-3.71;100.00;100230.47;5262241;28;20037;-82
2022/12/14 10:07:13;;;;;;;20.35;9.75;;;;;;;-3.63;100.00;100224.91;5244003;28;20065;-82
2022/12/14 10:09:56;;;;;;;17.83;9.07;;;;;;;-3.60;100.00;100224.78;5260438;28;20037;-82
2022/12/14 10:12:51;;;;;;;18.27;9.68;;;;;;;-3.51;100.00;100213.09;5262967;28;20018;-81
2022/12/14 10:15:39;;;;;;;13.75;8.98;;;;;;;-3.46;100.00;100214.56;5261874;28;20026;-82
2022/12/14 10:18:45;;;;;;;15.23;9.20;;;;;;;-3.37;100.00;100209.88;5262216;28;20056;-82
2022/12/14 10:21:22;;;;;;;18.60;9.20;;;;;;;-3.33;100.00;100201.84;5239174;28;20171;-82
2022/12/14 10:23:59;;;;;;;14.18;8.85;;;;;;;-3.26;100.00;100199.78;5263109;28;20060;-81
2022/12/14 10:26:49;;;;;;;13.57;8.27;;;;;;;-3.17;100.00;100203.72;5262616;28;20068;-82
2022/12/14 10:29:27;;;;;;;16.52;9.50;;;;;;;-3.16;100.00;100210.66;5261397;28;20032;-83
2022/12/14 10:32:24;;;;;;;13.38;8.45;;;;;;;-3.06;100.00;100211.94;5260073;28;20359;-83
2022/12/14 10:34:56;;;;;;;13.65;8.30;;;;;;;-3.04;100.00;100210.91;5243122;28;20469;-84
2022/12/14 10:37:41;;;;;;;18.70;10.20;;;;;;;-2.98;100.00;100204.59;5261113;28;20030;-84
2022/12/14 10:40:22;;;;;;;15.20;8.63;;;;;;;-2.87;100.00;100215.38;5260685;28;20032;-83
2022/12/14 10:43:35;;;;;;;15.52;8.90;;;;;;;-2.78;100.00;100208.03;5260139;28;20092;-83
2022/12/14 10:46:24;;;;;;;15.95;9.38;;;;;;;-2.71;100.00;100218.09;5227928;28;20421;-84
2022/12/14 10:49:11;;;;;;;19.50;9.45;;;;;;;-2.58;100.00;100213.13;5246310;28;20026;-83
2022/12/14 10:52:07;;;;;;;;;;;;;;;-2.47;100.00;100221.28;5242285;28;20477;-83
2022/12/14 10:55:00;;;;;;;16.70;8.20;;;;;;;-2.32;100.00;100222.28;5260721;28;19931;-84
2022/12/14 10:57:32;;;;;;;16.35;8.68;;;;;;;-2.15;100.00;100216.25;5259834;28;20500;-84
2022/12/14 11:00:15;;;;;;;16.33;8.95;;;;;;;-1.47;100.00;100214.53;5261984;28;20022;-83
2022/12/14 11:02:49;;;;;;;16.23;9.93;;;;;;;1.40;100.00;100209.16;5264528;28;20021;-82
2022/12/14 11:05:33;;;;;;;16.02;9.65;;;;;;;5.11;100.00;100211.47;5283008;28;20033;-82
2022/12/14 11:08:06;;;;;;;12.05;8.20;;;;;;;8.01;100.00;100213.22;5283386;28;20085;-83
2022/12/14 11:10:38;;;;;;;13.70;8.23;;;;;;;10.06;100.00;100207.72;5281484;28;20081;-83
2022/12/14 11:13:12;;;;;;;10.02;7.32;;;;;;;11.39;100.00;100216.28;5267572;28;20026;-83
2022/12/14 11:15:49;;;;;;;11.60;6.75;;;;;;;12.65;100.00;100220.50;5245496;28;20052;-84
2022/12/14 11:18:29;;;;;;;10.07;6.80;;;;;;;13.34;100.00;100212.75;5266911;28;20029;-84
2022/12/14 11:21:04;;;;;;;9.20;6.32;;;;;;;13.92;83.53;100207.84;5266822;28;20022;-84
2022/12/14 11:23:38;;;;;;;10.20;6.47;;;;;;;13.84;73.55;100207.06;5266511;28;20084;-81
2022/12/14 11:26:43;;;;;;;11.50;7.42;;;;;;;15.86;85.76;100214.00;5260620;28;1079330;-82
2022/12/14 11:29:18;;;;;;;10.50;7.28;;;;;;;14.33;71.51;100218.22;5228538;28;20411;-83
2022/12/14 11:31:52;;;;;;;9.43;7.20;;;;;;;15.00;68.57;100219.19;5260867;28;20018;-83
2022/12/14 11:34:32;;;;;;;11.25;6.50;;;;;;;15.64;61.01;100215.00;5240160;28;20030;-83
2022/12/14 11:37:10;;;;;;;11.35;6.93;;;;;;;15.99;54.51;100213.31;5257810;28;20052;-82
2022/12/14 11:39:42;;;;;;;10.27;6.97;;;;;;;15.24;56.76;100209.19;5261593;28;20033;-82
2022/12/14 11:42:19;;;;;;;10.70;7.85;;;;;;;16.06;59.39;100211.50;5261191;28;20028;-83
2022/12/14 11:44:51;;;;;;;10.80;7.78;;;;;;;15.90;52.54;100203.72;5261395;28;20026;-83
2022/12/14 11:47:25;;;;;;;10.30;7.82;;;;;;;15.45;49.54;100195.78;5260883;28;20021;-83
2022/12/14 11:49:56;;;;;;;9.43;7.45;;;;;;;16.07;47.25;100199.69;5260860;28;20448;-83
2022/12/14 11:52:37;;;;;;;11.23;8.18;;;;;;;16.82;53.86;100202.72;5259922;28;20145;-82
2022/12/14 11:55:12;;;;;;;11.35;8.10;;;;;;;16.52;45.11;100201.28;5260874;28;20053;-83
2022/12/14 11:57:51;;;;;;;13.05;8.18;;;;;;;16.74;52.77;100205.59;5242028;28;20112;-82
2022/12/14 12:00:25;;;;;;;10.20;7.85;;;;;;;16.95;44.22;100209.22;5259818;28;20061;-82
2022/12/14 12:03:13;;;;;;;11.25;7.75;;;;;;;18.43;46.34;100211.22;5261609;28;20032;-83
2022/12/14 12:05:45;;;;;;;11.13;7.43;;;;;;;16.62;41.61;100199.09;5261156;28;20120;-82